KBBD/BBD METAR and TAF weather

Enter ICAO airport designator
Station Type Date Time Source
KBBD METAR 2016/03/20 10:15 UTC NOAA

KBBD 201015Z AUTO 10SM CLR 02/M02 A3037 RMK


Station Type Date Time Source
KBBD Decoded METAR 2016/03/20 10:15 UTC NOAA

Brady, Curtis Field Airport, TX, United States (KBBD) 31-10-45N 099-19-26W
Mar 20, 2016 - 06:15 AM EDT / 2016.03.20 1015 UTC
Visibility: 10 mile(s):0
Sky conditions: clear
Temperature: 35 F (2 C)
Dew Point: 28 F (-2 C)
Relative Humidity: 74%
Pressure (altimeter): 30.37 in. Hg (1028 hPa)
ob: KBBD 201015Z AUTO 10SM CLR 02/M02 A3037 RMK
cycle: 10

Station Type Date Time Source
KBBD TAF 2018/01/21 12:30 UTC NOAA

TAF KBBD 211129Z 2112/2212 17007KT P6SM BKN012
FM211700 19016G24KT P6SM SKC
FM220000 26010KT P6SM SKC
AMD NOT SKED


Example: see airport list